createdAt,value
2023-05-05T00:07:30.200Z,73.5
2023-05-05T00:15:45.719Z,73
2023-05-05T00:24:01.237Z,71.5
2023-05-05T00:32:16.776Z,74
2023-05-05T00:40:32.305Z,72.5
2023-05-05T00:48:47.802Z,72.5
2023-05-05T00:57:03.333Z,73
2023-05-05T01:05:18.826Z,74.5
2023-05-05T01:13:34.326Z,70.5
2023-05-05T01:21:49.968Z,72
2023-05-05T01:30:05.334Z,77.5
2023-05-05T01:38:20.848Z,76.5
2023-05-05T01:46:36.356Z,72
2023-05-05T01:54:51.865Z,75
2023-05-05T02:03:07.372Z,75
2023-05-05T02:11:22.882Z,74
2023-05-05T02:19:38.369Z,76.5
2023-05-05T02:27:53.862Z,75
2023-05-05T02:36:09.346Z,75
2023-05-05T02:44:24.882Z,75
2023-05-05T02:52:40.291Z,76
2023-05-05T03:00:55.759Z,79
2023-05-05T03:09:11.235Z,76.5
2023-05-05T03:17:26.696Z,76.5
2023-05-05T03:25:42.169Z,76
2023-05-05T03:33:57.645Z,76
2023-05-05T03:42:13.099Z,77.5
2023-05-05T03:50:28.548Z,77
2023-05-05T03:58:44.008Z,79.5
2023-05-05T04:06:59.462Z,80
2023-05-05T04:15:14.923Z,76
2023-05-05T04:23:30.361Z,78
2023-05-05T04:31:45.788Z,79
2023-05-05T04:40:01.222Z,79.5
2023-05-05T04:48:16.660Z,77
2023-05-05T04:56:32.105Z,79
2023-05-05T05:04:47.578Z,78.5
2023-05-05T05:13:03.054Z,81.5
2023-05-05T05:21:18.535Z,76.5
2023-05-05T05:29:34.061Z,71.5
2023-05-05T05:37:49.502Z,77.5
2023-05-05T05:46:05.021Z,74.5
2023-05-05T05:54:20.533Z,73.5
2023-05-05T06:02:36.090Z,74.5
2023-05-05T06:10:51.608Z,71.5
2023-05-05T06:19:07.182Z,68.5
2023-05-05T06:27:22.809Z,71.5
2023-05-05T06:35:38.508Z,65.5
2023-05-05T06:43:54.366Z,54.5
2023-05-05T06:52:10.245Z,61
2023-05-05T07:00:32.095Z,59
2023-05-05T07:08:42.061Z,55.5
2023-05-05T07:16:58.102Z,53
2023-05-05T07:25:14.031Z,56.5
2023-05-05T07:33:29.990Z,54
2023-05-05T07:41:45.798Z,49.5
2023-05-05T07:50:01.845Z,56.5
2023-05-05T07:58:17.643Z,51.5
2023-05-05T08:06:33.605Z,48
2023-05-05T08:14:49.611Z,48.5
2023-05-05T08:23:05.671Z,45.5
2023-05-05T08:31:21.754Z,41
2023-05-05T08:39:37.868Z,45
2023-05-05T08:47:53.958Z,42.5
2023-05-05T08:56:10.134Z,40.5
2023-05-05T09:04:26.389Z,36.5
2023-05-05T09:12:42.712Z,43.5
2023-05-05T09:20:59.224Z,37.5
2023-05-05T09:29:15.781Z,41.5
2023-05-05T09:37:32.318Z,42.5
2023-05-05T09:45:48.877Z,45.5
2023-05-05T09:54:05.599Z,49
2023-05-05T10:02:22.202Z,50.5
2023-05-05T10:10:38.682Z,44.5
2023-05-05T10:18:55.134Z,46
2023-05-05T10:27:11.487Z,44.5
2023-05-05T10:35:27.903Z,42.5
2023-05-05T10:43:44.260Z,44.5
2023-05-05T10:52:00.532Z,46.5
2023-05-05T11:00:16.721Z,42
2023-05-05T11:08:32.832Z,43.5
2023-05-05T11:16:48.872Z,44
2023-05-05T11:25:04.891Z,38.5
2023-05-05T11:33:20.925Z,43.5
2023-05-05T11:41:36.847Z,42.5
2023-05-05T11:49:52.786Z,47.5
2023-05-05T11:58:08.695Z,42.5
2023-05-05T12:06:24.600Z,43.5
2023-05-05T12:14:40.468Z,45.5
2023-05-05T12:22:56.312Z,50
2023-05-05T12:31:12.123Z,46.5
2023-05-05T12:39:27.973Z,48
2023-05-05T12:47:43.832Z,49
2023-05-05T12:55:59.664Z,48
2023-05-05T13:04:15.489Z,50
2023-05-05T13:12:31.305Z,48.5
2023-05-05T13:20:47.111Z,47
2023-05-05T13:29:02.913Z,44.5
2023-05-05T13:37:18.806Z,46
2023-05-05T13:45:34.499Z,48
2023-05-05T13:53:50.308Z,44.5
2023-05-05T14:02:06.114Z,45
2023-05-05T14:10:21.895Z,43
2023-05-05T14:18:37.705Z,43
2023-05-05T14:26:53.471Z,45
2023-05-05T14:35:09.258Z,43
2023-05-05T14:43:25.078Z,41
2023-05-05T14:51:40.851Z,41
2023-05-05T14:59:56.655Z,42
2023-05-05T15:16:26.273Z,44.5
2023-05-05T15:24:44.138Z,41.5
2023-05-05T15:32:59.931Z,43.5
2023-05-05T15:41:15.725Z,43
2023-05-05T15:49:31.553Z,45.5
2023-05-05T15:57:47.321Z,44.5
2023-05-05T16:06:03.098Z,45
2023-05-05T16:14:18.887Z,45
2023-05-05T16:22:34.667Z,46.5
2023-05-05T16:30:56.400Z,44
2023-05-05T16:39:06.243Z,47
2023-05-05T16:47:22.048Z,49
2023-05-05T16:55:43.739Z,51
2023-05-05T17:03:53.601Z,49
2023-05-05T17:12:09.363Z,50.5
2023-05-05T17:20:31.073Z,50.5
2023-05-05T17:28:41.046Z,53.5
2023-05-05T17:36:56.590Z,51
2023-05-05T17:45:12.364Z,50.5
2023-05-05T17:53:28.048Z,49
2023-05-05T18:01:49.655Z,53
2023-05-05T18:09:59.498Z,55.5
2023-05-05T18:18:15.137Z,53
2023-05-05T18:26:30.839Z,58
2023-05-05T18:34:46.525Z,58.5
2023-05-05T18:43:02.213Z,58
2023-05-05T18:51:17.848Z,57
2023-05-05T18:59:33.490Z,57.5
2023-05-05T19:07:49.257Z,57.5
2023-05-05T19:16:04.810Z,58.5
2023-05-05T19:24:20.474Z,61.5
2023-05-05T19:32:36.222Z,61.5
2023-05-05T19:40:51.696Z,58.5
2023-05-05T19:49:07.513Z,64.5
2023-05-05T19:57:23.212Z,62
2023-05-05T20:05:38.605Z,63.5
2023-05-05T20:13:54.385Z,64
2023-05-05T20:22:09.812Z,64
2023-05-05T20:30:25.581Z,65
2023-05-05T20:38:41.020Z,67.5
2023-05-05T20:46:56.732Z,66
2023-05-05T20:55:12.360Z,65.5
2023-05-05T21:03:27.953Z,68
2023-05-05T21:11:43.559Z,67
2023-05-05T21:19:59.044Z,66
2023-05-05T21:28:14.629Z,67
2023-05-05T21:36:30.333Z,68.5
2023-05-05T21:44:45.717Z,68
2023-05-05T21:53:01.433Z,69.5
2023-05-05T22:01:16.995Z,67.5
2023-05-05T22:09:32.436Z,69
2023-05-05T22:17:48.023Z,69
2023-05-05T22:26:03.680Z,70.5
2023-05-05T22:34:19.347Z,70
2023-05-05T22:42:34.752Z,71.5
2023-05-05T22:50:50.489Z,72.5
2023-05-05T22:59:06.109Z,71.5
2023-05-05T23:07:21.601Z,72
2023-05-05T23:15:37.263Z,73.5
2023-05-05T23:23:52.621Z,72
2023-05-05T23:32:08.174Z,73.5
2023-05-05T23:40:23.739Z,73.5
2023-05-05T23:48:39.296Z,73.5
2023-05-05T23:56:54.836Z,74
